createdAt,value
2023-02-14T00:02:14.654Z,57.17
2023-02-14T00:04:47.087Z,51.37
2023-02-14T00:07:15.878Z,51.30
2023-02-14T00:09:45.681Z,47.17
2023-02-14T00:12:14.047Z,45.13
2023-02-14T00:14:59.829Z,49.43
2023-02-14T00:17:28.161Z,49.93
2023-02-14T00:19:56.486Z,48.00
2023-02-14T00:22:25.000Z,49.80
2023-02-14T00:24:54.741Z,44.27
2023-02-14T00:27:23.045Z,43.90
2023-02-14T00:29:51.475Z,44.40
2023-02-14T00:32:19.843Z,42.23
2023-02-14T00:34:48.231Z,47.13
2023-02-14T00:37:16.622Z,45.17
2023-02-14T00:39:45.150Z,44.33
2023-02-14T00:42:14.943Z,43.30
2023-02-14T00:44:46.517Z,44.67
2023-02-14T00:47:14.872Z,48.70
2023-02-14T00:49:43.347Z,47.37
2023-02-14T00:52:11.881Z,46.93
2023-02-14T00:54:40.106Z,45.17
2023-02-14T00:57:08.572Z,43.30
2023-02-14T00:59:39.326Z,44.10
2023-02-14T01:02:07.717Z,45.63
2023-02-14T01:04:36.251Z,42.90
2023-02-14T01:07:04.632Z,45.30
2023-02-14T01:09:33.230Z,41.90
2023-02-14T01:12:03.609Z,45.50
2023-02-14T01:14:32.081Z,44.97
2023-02-14T01:17:01.967Z,44.67
2023-02-14T01:19:30.806Z,46.87
2023-02-14T01:21:59.152Z,45.70
2023-02-14T01:24:27.583Z,46.53
2023-02-14T01:26:55.981Z,46.70
2023-02-14T01:29:24.296Z,44.90
2023-02-14T01:31:53.978Z,44.07
2023-02-14T01:34:23.752Z,43.53
2023-02-14T01:36:52.142Z,44.60
2023-02-14T01:39:20.540Z,41.20
2023-02-14T01:41:49.640Z,44.13
2023-02-14T01:44:56.842Z,38.33
2023-02-14T01:47:27.326Z,44.40
2023-02-14T01:50:00.452Z,43.43
2023-02-14T01:52:33.250Z,42.37
2023-02-14T01:55:06.296Z,40.67
2023-02-14T01:57:39.689Z,43.23
2023-02-14T02:00:38.714Z,42.90
2023-02-14T02:03:09.263Z,43.67
2023-02-14T02:05:44.543Z,45.77
2023-02-14T02:08:16.627Z,42.40
2023-02-14T02:10:45.970Z,45.83
2023-02-14T02:13:17.632Z,43.57
2023-02-14T02:15:59.336Z,41.83
2023-02-14T02:18:36.359Z,46.00
2023-02-14T02:21:47.331Z,41.53
2023-02-14T02:24:26.520Z,39.87
2023-02-14T02:27:18.621Z,38.03
2023-02-14T02:30:32.524Z,41.33
2023-02-14T02:33:34.211Z,41.37
2023-02-14T02:36:50.839Z,41.00
2023-02-14T02:39:40.312Z,41.50
2023-02-14T02:42:22.721Z,39.07
2023-02-14T02:44:57.868Z,38.37
2023-02-14T02:47:35.109Z,40.67
2023-02-14T02:50:29.877Z,42.93
2023-02-14T02:53:08.061Z,41.27
2023-02-14T02:56:08.776Z,41.20
2023-02-14T02:58:40.793Z,39.20
2023-02-14T03:01:15.705Z,37.37
2023-02-14T03:04:17.166Z,36.37
2023-02-14T03:06:46.202Z,39.97
2023-02-14T03:09:52.759Z,39.60
2023-02-14T03:12:45.749Z,38.77
2023-02-14T03:15:22.044Z,38.07
2023-02-14T03:18:00.631Z,40.27
2023-02-14T03:20:37.901Z,38.03
2023-02-14T03:23:15.434Z,38.17
2023-02-14T03:25:53.792Z,40.67
2023-02-14T03:28:30.727Z,37.13
2023-02-14T03:31:05.968Z,38.13
2023-02-14T03:33:44.769Z,39.20
2023-02-14T03:36:18.826Z,40.10
2023-02-14T03:38:52.126Z,38.93
2023-02-14T03:41:25.409Z,39.40
2023-02-14T03:43:57.679Z,39.53
2023-02-14T03:46:30.392Z,42.80
2023-02-14T03:49:02.591Z,39.47
2023-02-14T03:51:34.279Z,39.87
2023-02-14T03:54:05.848Z,38.03
2023-02-14T03:56:44.905Z,40.10
2023-02-14T03:59:17.768Z,43.30
2023-02-14T04:01:50.128Z,39.90
2023-02-14T04:04:22.669Z,41.37
2023-02-14T04:06:51.179Z,38.83
2023-02-14T04:09:19.539Z,40.97
2023-02-14T04:11:50.422Z,37.10
2023-02-14T04:14:19.107Z,42.37
2023-02-14T04:17:19.181Z,38.60
2023-02-14T04:19:47.802Z,41.83
2023-02-14T04:22:16.291Z,38.70
2023-02-14T04:24:45.058Z,40.30
2023-02-14T04:27:17.232Z,38.40
2023-02-14T04:29:47.973Z,41.83
2023-02-14T04:32:18.590Z,35.63
2023-02-14T04:34:47.243Z,41.07
2023-02-14T04:37:17.485Z,37.13
2023-02-14T04:39:45.824Z,40.53
2023-02-14T04:42:16.750Z,38.37
2023-02-14T04:44:45.336Z,38.57
2023-02-14T04:47:14.344Z,41.63
2023-02-14T04:49:45.338Z,36.93
2023-02-14T04:52:14.207Z,38.03
2023-02-14T04:54:43.868Z,43.10
2023-02-14T04:57:12.436Z,39.53
2023-02-14T04:59:44.184Z,38.83
2023-02-14T05:02:12.907Z,38.33
2023-02-14T05:04:41.342Z,37.93
2023-02-14T05:07:09.876Z,41.30
2023-02-14T05:09:40.793Z,40.70
2023-02-14T05:12:09.330Z,37.07
2023-02-14T05:14:37.842Z,39.53
2023-02-14T05:17:07.791Z,38.03
2023-02-14T05:19:36.374Z,39.30
2023-02-14T05:22:05.007Z,42.40
2023-02-14T05:24:33.759Z,39.13
2023-02-14T05:27:02.600Z,38.93
2023-02-14T05:29:31.218Z,41.87
2023-02-14T05:31:59.647Z,42.80
2023-02-14T05:34:29.647Z,40.03
2023-02-14T05:36:58.067Z,41.80
2023-02-14T05:39:26.531Z,38.70
2023-02-14T05:41:57.936Z,38.00
2023-02-14T05:44:27.715Z,41.67
2023-02-14T05:46:56.230Z,36.83
2023-02-14T05:49:24.564Z,34.67
2023-02-14T05:51:54.430Z,35.97
2023-02-14T05:54:22.912Z,36.20
2023-02-14T05:56:51.617Z,36.97
2023-02-14T05:59:20.041Z,37.17
2023-02-14T06:01:48.372Z,38.10
2023-02-14T06:04:16.824Z,37.00
2023-02-14T06:06:48.372Z,35.70
2023-02-14T06:09:19.727Z,38.87
2023-02-14T06:11:48.382Z,40.83
2023-02-14T06:14:16.764Z,43.80
2023-02-14T06:16:45.982Z,42.00
2023-02-14T06:19:14.917Z,40.67
2023-02-14T06:21:44.653Z,37.43
2023-02-14T06:24:14.328Z,39.40
2023-02-14T06:26:44.128Z,39.53
2023-02-14T06:29:12.580Z,39.40
2023-02-14T06:31:41.273Z,39.67
2023-02-14T06:34:09.740Z,36.20
2023-02-14T06:36:38.296Z,38.43
2023-02-14T06:39:06.882Z,39.37
2023-02-14T06:41:35.327Z,38.30
2023-02-14T06:44:05.452Z,38.00
2023-02-14T11:27:34.191Z,21.40
2023-02-14T11:30:02.868Z,21.90
2023-02-14T11:32:37.782Z,23.53
2023-02-14T11:35:08.926Z,22.93
2023-02-14T11:38:28.521Z,23.10
2023-02-14T11:41:19.448Z,23.03
2023-02-14T11:43:52.230Z,22.10
2023-02-14T11:46:30.530Z,22.43
2023-02-14T11:49:02.189Z,23.23
2023-02-14T11:51:34.948Z,20.90
2023-02-14T11:54:05.378Z,21.17
2023-02-14T11:56:50.938Z,23.57
2023-02-14T11:59:33.273Z,23.60
2023-02-14T12:02:05.304Z,22.17
2023-02-14T12:04:45.782Z,22.50
2023-02-14T12:07:26.315Z,23.33
2023-02-14T12:10:18.667Z,24.90
2023-02-14T12:13:19.437Z,27.17
2023-02-14T12:15:58.746Z,21.90
2023-02-14T12:18:39.245Z,23.17
2023-02-14T12:21:41.652Z,24.17
2023-02-14T12:24:20.024Z,23.50
2023-02-14T12:27:08.586Z,25.37
2023-02-14T12:29:57.665Z,23.07
2023-02-14T12:32:30.651Z,23.77
2023-02-14T12:35:03.777Z,25.20
2023-02-14T12:37:42.069Z,22.70
2023-02-14T12:40:20.224Z,22.57
2023-02-14T12:43:14.382Z,23.20
2023-02-14T12:46:23.522Z,22.33
2023-02-14T12:49:18.727Z,23.23
2023-02-14T12:52:09.380Z,25.23
2023-02-14T12:54:55.478Z,22.40
2023-02-14T12:57:38.730Z,23.33
2023-02-14T13:00:24.242Z,21.23
2023-02-14T13:03:19.205Z,21.83
2023-02-14T13:05:59.504Z,23.37
2023-02-14T13:08:49.173Z,20.30
2023-02-14T13:11:30.215Z,18.37
2023-02-14T13:14:06.550Z,18.27
2023-02-14T13:16:44.655Z,17.80
2023-02-14T13:19:26.020Z,16.23
2023-02-14T13:21:59.705Z,17.93
2023-02-14T13:24:32.792Z,16.17
2023-02-14T13:27:03.260Z,18.50
2023-02-14T13:29:38.386Z,20.37
2023-02-14T13:32:07.297Z,20.57
2023-02-14T13:34:40.459Z,20.57
2023-02-14T13:37:13.970Z,20.60
2023-02-14T13:39:46.836Z,21.33
2023-02-14T13:42:56.506Z,21.00
2023-02-14T13:45:58.944Z,22.23
2023-02-14T13:48:28.581Z,25.57
2023-02-14T13:51:00.097Z,22.83
2023-02-14T13:53:35.428Z,21.50
2023-02-14T13:56:07.620Z,21.13
2023-02-14T13:58:37.735Z,21.73
2023-02-14T14:01:31.942Z,19.87
2023-02-14T14:04:02.457Z,19.07
2023-02-14T14:06:31.641Z,19.73
2023-02-14T14:09:00.228Z,20.33
2023-02-14T14:11:56.132Z,18.53
2023-02-14T14:14:37.567Z,17.67
2023-02-14T14:17:23.293Z,19.17
2023-02-14T14:19:52.446Z,21.07
2023-02-14T14:22:22.836Z,18.43
2023-02-14T14:25:00.658Z,20.30
2023-02-14T14:27:33.940Z,20.23
2023-02-14T14:30:06.237Z,23.30
2023-02-14T14:32:36.444Z,22.33
2023-02-14T14:35:08.357Z,21.90
2023-02-14T14:37:46.610Z,21.40
2023-02-14T14:40:25.043Z,22.90
2023-02-14T14:42:55.438Z,21.83
2023-02-14T14:45:28.046Z,21.67
2023-02-14T14:47:59.166Z,21.00
2023-02-14T14:50:30.202Z,20.03
2023-02-14T14:53:04.119Z,21.37
2023-02-14T14:55:34.556Z,20.30
2023-02-14T14:58:05.345Z,19.60
2023-02-14T15:00:36.644Z,18.60
2023-02-14T15:03:11.606Z,21.20
2023-02-14T15:05:42.887Z,20.30
2023-02-14T15:08:17.201Z,24.50
2023-02-14T15:10:50.992Z,20.43
2023-02-14T15:13:38.407Z,22.23
2023-02-14T15:16:12.090Z,22.83
2023-02-14T15:18:41.060Z,21.47
2023-02-14T15:21:12.966Z,20.63
2023-02-14T15:23:45.245Z,20.30
2023-02-14T15:26:20.093Z,20.23
2023-02-14T15:28:57.790Z,22.20
2023-02-14T15:31:53.983Z,23.17
2023-02-14T15:34:26.163Z,21.67
2023-02-14T15:36:59.348Z,22.83
2023-02-14T15:39:35.369Z,21.53
2023-02-14T15:42:04.888Z,23.17
2023-02-14T15:44:33.860Z,20.60
2023-02-14T15:47:06.899Z,22.30
2023-02-14T15:49:41.099Z,22.40
2023-02-14T15:52:14.229Z,21.40
2023-02-14T15:54:46.429Z,20.27
2023-02-14T15:57:25.045Z,21.40
2023-02-14T15:59:54.090Z,19.40
2023-02-14T16:02:31.160Z,20.67
2023-02-14T16:05:07.386Z,20.20
2023-02-14T16:07:36.220Z,21.33
2023-02-14T16:10:32.594Z,21.20
2023-02-14T16:13:03.580Z,20.13
2023-02-14T16:15:33.317Z,18.93
2023-02-14T16:18:08.205Z,21.17
2023-02-14T16:20:43.327Z,21.93
2023-02-14T16:59:23.716Z,18.03
2023-02-14T17:01:52.657Z,17.63
2023-02-14T17:04:21.167Z,20.00
2023-02-14T17:07:01.596Z,20.77
2023-02-14T17:09:33.315Z,21.23
2023-02-14T17:12:04.622Z,20.53
2023-02-14T17:14:38.246Z,21.23
2023-02-14T17:17:06.692Z,22.17
2023-02-14T17:19:35.275Z,20.27
2023-02-14T17:23:19.465Z,20.83
2023-02-14T17:25:48.079Z,23.17
2023-02-14T17:28:16.589Z,24.90
2023-02-14T17:30:47.542Z,24.30
2023-02-14T17:34:11.951Z,21.67
2023-02-14T17:36:40.956Z,24.57
2023-02-14T17:39:09.796Z,22.60
2023-02-14T17:41:38.334Z,22.63
2023-02-14T17:44:24.465Z,23.33
2023-02-14T17:46:59.395Z,23.77
2023-02-14T17:49:28.136Z,25.57
2023-02-14T17:51:57.057Z,22.93
2023-02-14T17:54:25.794Z,24.53
2023-02-14T17:56:54.319Z,27.03
2023-02-14T17:59:22.790Z,33.50
2023-02-14T18:01:51.359Z,31.60
2023-02-14T18:04:21.438Z,30.60
2023-02-14T18:06:58.670Z,37.33
2023-02-14T18:09:27.366Z,34.50
2023-02-14T18:11:59.297Z,29.90
2023-02-14T18:14:29.340Z,29.27
2023-02-14T18:17:00.133Z,30.43
2023-02-14T18:20:21.001Z,30.30
2023-02-14T18:22:51.366Z,29.33
2023-02-14T18:25:22.338Z,29.07
2023-02-14T18:27:50.908Z,30.87
2023-02-14T18:31:14.914Z,48.67
2023-02-14T18:33:45.043Z,35.07
2023-02-14T18:36:15.631Z,34.93
2023-02-14T18:39:42.567Z,33.10
2023-02-14T18:42:12.697Z,36.37
2023-02-14T18:44:41.404Z,36.50
2023-02-14T18:47:10.259Z,52.10
2023-02-14T18:49:38.764Z,43.83
2023-02-14T18:52:07.407Z,40.13
2023-02-14T18:54:36.149Z,38.53
2023-02-14T18:57:04.964Z,37.00
2023-02-14T18:59:35.201Z,38.77
2023-02-14T19:02:03.767Z,43.17
2023-02-14T19:04:32.671Z,39.57
2023-02-14T19:07:01.283Z,38.13
2023-02-14T19:09:30.567Z,38.03
2023-02-14T19:12:00.168Z,38.87
2023-02-14T19:14:35.579Z,38.97
2023-02-14T19:17:06.615Z,39.90
2023-02-14T19:28:42.869Z,45.67
2023-02-14T19:36:21.027Z,46.90
2023-02-14T19:39:48.217Z,48.70
2023-02-14T19:43:40.633Z,44.83
2023-02-14T19:52:28.441Z,44.77
2023-02-14T19:56:09.165Z,41.63
2023-02-14T20:22:12.200Z,34.93
2023-02-14T20:30:09.526Z,35.70
2023-02-14T20:34:10.045Z,41.13
2023-02-14T21:37:37.515Z,32.77
2023-02-14T22:31:10.229Z,67.47
2023-02-14T22:33:41.864Z,62.70
2023-02-14T22:36:12.259Z,68.80
2023-02-14T22:44:21.200Z,61.43
2023-02-14T22:46:51.249Z,64.73
2023-02-14T22:49:19.716Z,63.10
2023-02-14T22:51:48.200Z,56.00
2023-02-14T22:54:17.909Z,54.70
2023-02-14T22:56:47.981Z,58.43
2023-02-14T22:59:18.142Z,53.87
2023-02-14T23:01:46.830Z,51.00
2023-02-14T23:04:21.522Z,46.97
2023-02-14T23:06:51.805Z,46.47
2023-02-14T23:09:21.179Z,48.23
2023-02-14T23:11:52.564Z,47.20
2023-02-14T23:14:38.525Z,46.50
2023-02-14T23:17:21.106Z,51.33
2023-02-14T23:20:08.154Z,49.63
2023-02-14T23:22:38.263Z,48.70
2023-02-14T23:25:08.907Z,51.70
2023-02-14T23:27:39.354Z,50.77
2023-02-14T23:30:11.091Z,49.13
2023-02-14T23:32:39.668Z,48.33
2023-02-14T23:35:10.402Z,48.57
2023-02-14T23:37:39.202Z,49.77
2023-02-14T23:40:09.852Z,47.27
2023-02-14T23:42:38.707Z,47.30
2023-02-14T23:45:25.346Z,46.73
2023-02-14T23:47:53.878Z,48.07
2023-02-14T23:50:23.576Z,54.43
2023-02-14T23:52:52.604Z,53.10
2023-02-14T23:55:21.092Z,50.40
2023-02-14T23:57:49.609Z,52.43
